sensor_id;sensor_type;location;lat;lon;timestamp;pressure;altitude;pressure_sealevel;temperature;humidity
50933;BME280;36921;49.006;9.292;2022-12-18T00:01:44;99975.53;;;-11.38;100.00
50933;BME280;36921;49.006;9.292;2022-12-18T00:04:20;99974.44;;;-11.30;100.00
50933;BME280;36921;49.006;9.292;2022-12-18T00:06:45;99954.06;;;-11.51;100.00
50933;BME280;36921;49.006;9.292;2022-12-18T00:09:11;99966.97;;;-11.45;100.00
50933;BME280;36921;49.006;9.292;2022-12-18T00:11:36;99986.09;;;-11.43;100.00
50933;BME280;36921;49.006;9.292;2022-12-18T00:14:01;99967.22;;;-11.56;100.00
50933;BME280;36921;49.006;9.292;2022-12-18T00:16:28;99974.88;;;-11.48;100.00
50933;BME280;36921;49.006;9.292;2022-12-18T00:18:59;99945.84;;;-11.70;100.00
50933;BME280;36921;49.006;9.292;2022-12-18T00:21:26;99967.97;;;-11.49;100.00
50933;BME280;36921;49.006;9.292;2022-12-18T00:23:51;99958.34;;;-11.47;100.00
50933;BME280;36921;49.006;9.292;2022-12-18T00:26:22;99970.41;;;-11.43;100.00
50933;BME280;36921;49.006;9.292;2022-12-18T00:28:48;99985.25;;;-11.45;100.00
50933;BME280;36921;49.006;9.292;2022-12-18T00:31:17;99979.00;;;-11.38;100.00
50933;BME280;36921;49.006;9.292;2022-12-18T00:33:43;99963.50;;;-11.45;100.00
50933;BME280;36921;49.006;9.292;2022-12-18T00:36:19;99958.44;;;-11.52;100.00
50933;BME280;36921;49.006;9.292;2022-12-18T00:38:46;99953.22;;;-11.52;100.00
50933;BME280;36921;49.006;9.292;2022-12-18T00:41:13;99958.19;;;-11.41;100.00
50933;BME280;36921;49.006;9.292;2022-12-18T00:43:39;99962.63;;;-11.44;100.00
50933;BME280;36921;49.006;9.292;2022-12-18T00:46:05;99942.47;;;-11.75;100.00
50933;BME280;36921;49.006;9.292;2022-12-18T00:48:30;99969.00;;;-11.56;100.00
50933;BME280;36921;49.006;9.292;2022-12-18T00:50:56;99957.19;;;-11.73;100.00
50933;BME280;36921;49.006;9.292;2022-12-18T00:53:21;99961.22;;;-11.58;100.00
50933;BME280;36921;49.006;9.292;2022-12-18T00:55:47;99961.16;;;-11.56;100.00
50933;BME280;36921;49.006;9.292;2022-12-18T00:58:14;99962.88;;;-11.55;100.00
50933;BME280;36921;49.006;9.292;2022-12-18T01:00:40;99923.00;;;-11.60;100.00
50933;BME280;36921;49.006;9.292;2022-12-18T01:03:06;99966.22;;;-11.50;100.00
50933;BME280;36921;49.006;9.292;2022-12-18T01:05:32;99964.69;;;-11.57;100.00
50933;BME280;36921;49.006;9.292;2022-12-18T01:07:58;99971.03;;;-11.69;100.00
50933;BME280;36921;49.006;9.292;2022-12-18T01:10:24;99988.34;;;-11.65;100.00
50933;BME280;36921;49.006;9.292;2022-12-18T01:12:51;99939.50;;;-11.97;100.00
50933;BME280;36921;49.006;9.292;2022-12-18T01:15:17;99961.53;;;-11.72;100.00
50933;BME280;36921;49.006;9.292;2022-12-18T01:17:43;99969.28;;;-11.69;100.00
50933;BME280;36921;49.006;9.292;2022-12-18T01:20:11;99954.75;;;-11.79;100.00
50933;BME280;36921;49.006;9.292;2022-12-18T01:22:36;99966.72;;;-11.72;100.00
50933;BME280;36921;49.006;9.292;2022-12-18T01:25:03;99969.81;;;-11.54;100.00
50933;BME280;36921;49.006;9.292;2022-12-18T01:27:29;99997.75;;;-11.58;100.00
50933;BME280;36921;49.006;9.292;2022-12-18T01:29:54;99979.00;;;-11.75;100.00
50933;BME280;36921;49.006;9.292;2022-12-18T01:32:20;99990.78;;;-11.57;100.00
50933;BME280;36921;49.006;9.292;2022-12-18T01:34:45;99962.66;;;-11.83;100.00
50933;BME280;36921;49.006;9.292;2022-12-18T01:37:10;100009.16;;;-11.62;100.00
50933;BME280;36921;49.006;9.292;2022-12-18T01:39:36;100005.69;;;-11.62;100.00
50933;BME280;36921;49.006;9.292;2022-12-18T01:42:12;99969.25;;;-11.67;100.00
50933;BME280;36921;49.006;9.292;2022-12-18T01:50:14;99980.88;;;-11.82;100.00
50933;BME280;36921;49.006;9.292;2022-12-18T01:52:42;99988.72;;;-11.82;100.00
50933;BME280;36921;49.006;9.292;2022-12-18T01:55:09;99992.22;;;-11.83;100.00
50933;BME280;36921;49.006;9.292;2022-12-18T01:57:36;100000.16;;;-11.86;100.00
50933;BME280;36921;49.006;9.292;2022-12-18T02:00:09;99993.28;;;-11.90;100.00
50933;BME280;36921;49.006;9.292;2022-12-18T02:02:35;99984.69;;;-11.95;100.00
50933;BME280;36921;49.006;9.292;2022-12-18T02:05:00;99976.31;;;-12.09;100.00
50933;BME280;36921;49.006;9.292;2022-12-18T02:10:15;99981.91;;;-11.87;100.00
50933;BME280;36921;49.006;9.292;2022-12-18T02:13:06;99990.66;;;-11.90;100.00
50933;BME280;36921;49.006;9.292;2022-12-18T02:15:50;100000.25;;;-11.89;100.00
50933;BME280;36921;49.006;9.292;2022-12-18T02:18:21;100002.56;;;-11.78;100.00
50933;BME280;36921;49.006;9.292;2022-12-18T02:21:25;100003.59;;;-11.85;100.00
50933;BME280;36921;49.006;9.292;2022-12-18T02:26:56;100006.38;;;-11.92;100.00
50933;BME280;36921;49.006;9.292;2022-12-18T02:31:59;99990.72;;;-11.92;100.00
50933;BME280;36921;49.006;9.292;2022-12-18T02:34:28;99991.66;;;-11.96;100.00
50933;BME280;36921;49.006;9.292;2022-12-18T02:36:56;99997.75;;;-11.95;100.00
50933;BME280;36921;49.006;9.292;2022-12-18T02:39:24;100001.75;;;-11.80;100.00
50933;BME280;36921;49.006;9.292;2022-12-18T02:41:51;100001.91;;;-11.86;100.00
50933;BME280;36921;49.006;9.292;2022-12-18T02:44:17;99965.97;;;-12.12;100.00
50933;BME280;36921;49.006;9.292;2022-12-18T02:46:46;99999.41;;;-11.91;100.00
50933;BME280;36921;49.006;9.292;2022-12-18T02:52:37;100025.00;;;-11.71;100.00
50933;BME280;36921;49.006;9.292;2022-12-18T02:55:15;100031.38;;;-11.83;100.00
50933;BME280;36921;49.006;9.292;2022-12-18T03:00:22;100023.75;;;-11.90;100.00
50933;BME280;36921;49.006;9.292;2022-12-18T03:03:10;100014.09;;;-11.87;100.00
50933;BME280;36921;49.006;9.292;2022-12-18T03:06:08;100021.97;;;-11.90;100.00
50933;BME280;36921;49.006;9.292;2022-12-18T03:08:39;100016.06;;;-11.98;100.00
50933;BME280;36921;49.006;9.292;2022-12-18T03:11:08;100014.25;;;-11.95;100.00
50933;BME280;36921;49.006;9.292;2022-12-18T03:13:50;100013.44;;;-11.97;100.00
50933;BME280;36921;49.006;9.292;2022-12-18T03:16:23;100011.53;;;-11.90;100.00
50933;BME280;36921;49.006;9.292;2022-12-18T03:18:59;100014.97;;;-11.86;100.00
50933;BME280;36921;49.006;9.292;2022-12-18T03:21:29;100003.03;;;-12.00;100.00
50933;BME280;36921;49.006;9.292;2022-12-18T03:23:57;100011.63;;;-11.93;100.00
50933;BME280;36921;49.006;9.292;2022-12-18T03:26:25;100013.41;;;-11.95;100.00
50933;BME280;36921;49.006;9.292;2022-12-18T03:28:57;100006.00;;;-12.15;100.00
50933;BME280;36921;49.006;9.292;2022-12-18T03:31:26;100025.97;;;-12.14;100.00
50933;BME280;36921;49.006;9.292;2022-12-18T03:33:55;100027.81;;;-12.19;100.00
50933;BME280;36921;49.006;9.292;2022-12-18T03:36:23;100014.06;;;-12.27;100.00
50933;BME280;36921;49.006;9.292;2022-12-18T03:38:49;100009.72;;;-12.27;100.00
50933;BME280;36921;49.006;9.292;2022-12-18T03:46:27;100027.63;;;-12.10;100.00
50933;BME280;36921;49.006;9.292;2022-12-18T03:49:14;100006.34;;;-12.32;100.00
50933;BME280;36921;49.006;9.292;2022-12-18T03:51:52;100010.69;;;-12.32;100.00
50933;BME280;36921;49.006;9.292;2022-12-18T03:54:20;100015.97;;;-12.36;100.00
50933;BME280;36921;49.006;9.292;2022-12-18T03:56:49;99983.06;;;-12.41;100.00
50933;BME280;36921;49.006;9.292;2022-12-18T03:59:18;100010.41;;;-12.19;100.00
50933;BME280;36921;49.006;9.292;2022-12-18T04:01:49;100005.19;;;-12.19;100.00
50933;BME280;36921;49.006;9.292;2022-12-18T04:04:18;100018.94;;;-12.10;100.00
50933;BME280;36921;49.006;9.292;2022-12-18T04:06:45;100000.75;;;-12.14;100.00
50933;BME280;36921;49.006;9.292;2022-12-18T04:09:12;100019.53;;;-11.98;100.00
50933;BME280;36921;49.006;9.292;2022-12-18T04:11:37;100021.97;;;-11.90;100.00
50933;BME280;36921;49.006;9.292;2022-12-18T04:14:03;100015.25;;;-12.00;100.00
50933;BME280;36921;49.006;9.292;2022-12-18T04:16:29;100021.38;;;-12.01;100.00
50933;BME280;36921;49.006;9.292;2022-12-18T04:18:54;100020.34;;;-11.94;100.00
50933;BME280;36921;49.006;9.292;2022-12-18T04:21:20;100041.56;;;-11.71;100.00
50933;BME280;36921;49.006;9.292;2022-12-18T04:23:45;100002.88;;;-11.92;100.00
50933;BME280;36921;49.006;9.292;2022-12-18T04:26:11;100002.97;;;-11.95;100.00
50933;BME280;36921;49.006;9.292;2022-12-18T04:28:36;100021.84;;;-11.85;100.00
50933;BME280;36921;49.006;9.292;2022-12-18T04:31:02;100019.69;;;-12.05;100.00
50933;BME280;36921;49.006;9.292;2022-12-18T04:33:27;100038.09;;;-12.13;100.00
50933;BME280;36921;49.006;9.292;2022-12-18T04:35:53;100041.44;;;-12.05;100.00
50933;BME280;36921;49.006;9.292;2022-12-18T04:38:18;100015.69;;;-12.20;100.00
50933;BME280;36921;49.006;9.292;2022-12-18T04:40:43;100044.22;;;-12.12;100.00
50933;BME280;36921;49.006;9.292;2022-12-18T04:43:09;100045.00;;;-12.09;100.00
50933;BME280;36921;49.006;9.292;2022-12-18T04:45:34;100033.78;;;-12.12;100.00
50933;BME280;36921;49.006;9.292;2022-12-18T04:48:00;100040.53;;;-12.02;100.00
50933;BME280;36921;49.006;9.292;2022-12-18T04:50:26;100016.47;;;-12.17;100.00
50933;BME280;36921;49.006;9.292;2022-12-18T04:52:52;100037.00;;;-12.01;100.00
50933;BME280;36921;49.006;9.292;2022-12-18T04:55:18;100037.03;;;-12.03;100.00
50933;BME280;36921;49.006;9.292;2022-12-18T04:57:43;100008.00;;;-12.28;100.00
50933;BME280;36921;49.006;9.292;2022-12-18T05:00:09;100031.88;;;-12.06;100.00
50933;BME280;36921;49.006;9.292;2022-12-18T05:02:35;100018.97;;;-12.12;100.00
50933;BME280;36921;49.006;9.292;2022-12-18T05:05:00;100014.84;;;-12.24;100.00
50933;BME280;36921;49.006;9.292;2022-12-18T05:07:25;100002.94;;;-12.37;100.00
50933;BME280;36921;49.006;9.292;2022-12-18T05:09:51;100020.22;;;-12.31;100.00
50933;BME280;36921;49.006;9.292;2022-12-18T05:12:16;99992.88;;;-12.55;100.00
50933;BME280;36921;49.006;9.292;2022-12-18T05:14:41;100012.69;;;-12.45;100.00
50933;BME280;36921;49.006;9.292;2022-12-18T05:17:07;100005.00;;;-12.53;100.00
50933;BME280;36921;49.006;9.292;2022-12-18T05:19:32;100012.91;;;-12.58;100.00
50933;BME280;36921;49.006;9.292;2022-12-18T05:21:58;100014.56;;;-12.52;100.00
50933;BME280;36921;49.006;9.292;2022-12-18T05:24:23;100017.03;;;-12.44;100.00
50933;BME280;36921;49.006;9.292;2022-12-18T05:26:48;100002.13;;;-12.39;100.00
50933;BME280;36921;49.006;9.292;2022-12-18T05:29:14;100006.69;;;-12.50;100.00
50933;BME280;36921;49.006;9.292;2022-12-18T05:31:39;100008.38;;;-12.48;100.00
50933;BME280;36921;49.006;9.292;2022-12-18T05:34:05;100004.56;;;-12.30;100.00
50933;BME280;36921;49.006;9.292;2022-12-18T05:36:30;100001.88;;;-12.25;100.00
50933;BME280;36921;49.006;9.292;2022-12-18T05:38:56;100011.31;;;-12.20;100.00
50933;BME280;36921;49.006;9.292;2022-12-18T05:41:21;100039.16;;;-12.22;100.00
50933;BME280;36921;49.006;9.292;2022-12-18T05:43:46;100037.63;;;-12.32;100.00
50933;BME280;36921;49.006;9.292;2022-12-18T05:46:14;100009.38;;;-12.53;100.00
50933;BME280;36921;49.006;9.292;2022-12-18T05:48:40;100037.84;;;-12.43;100.00
50933;BME280;36921;49.006;9.292;2022-12-18T05:51:11;100051.44;;;-12.27;100.00
50933;BME280;36921;49.006;9.292;2022-12-18T05:53:37;100050.66;;;-12.32;100.00
50933;BME280;36921;49.006;9.292;2022-12-18T05:56:05;100049.16;;;-12.44;100.00
50933;BME280;36921;49.006;9.292;2022-12-18T05:58:30;100058.75;;;-12.46;100.00
50933;BME280;36921;49.006;9.292;2022-12-18T06:00:56;100049.81;;;-12.34;100.00
50933;BME280;36921;49.006;9.292;2022-12-18T06:03:21;100054.03;;;-12.25;100.00
50933;BME280;36921;49.006;9.292;2022-12-18T06:05:46;100044.97;;;-12.07;100.00
50933;BME280;36921;49.006;9.292;2022-12-18T06:08:12;100032.66;;;-12.01;100.00
50933;BME280;36921;49.006;9.292;2022-12-18T06:10:38;100037.09;;;-12.04;100.00
50933;BME280;36921;49.006;9.292;2022-12-18T06:13:05;100017.91;;;-12.03;100.00
50933;BME280;36921;49.006;9.292;2022-12-18T06:15:31;100031.22;;;-11.77;100.00
50933;BME280;36921;49.006;9.292;2022-12-18T06:17:58;100020.84;;;-11.78;100.00
50933;BME280;36921;49.006;9.292;2022-12-18T06:20:23;100064.00;;;-11.63;100.00
50933;BME280;36921;49.006;9.292;2022-12-18T06:22:49;100024.53;;;-11.87;100.00
50933;BME280;36921;49.006;9.292;2022-12-18T06:25:14;100054.13;;;-11.49;100.00
50933;BME280;36921;49.006;9.292;2022-12-18T06:27:40;100055.00;;;-11.50;100.00
50933;BME280;36921;49.006;9.292;2022-12-18T06:30:06;100058.28;;;-11.40;100.00
50933;BME280;36921;49.006;9.292;2022-12-18T06:32:31;100054.06;;;-11.48;100.00
50933;BME280;36921;49.006;9.292;2022-12-18T06:34:57;100049.94;;;-11.56;100.00
50933;BME280;36921;49.006;9.292;2022-12-18T06:37:23;100059.38;;;-11.51;100.00
50933;BME280;36921;49.006;9.292;2022-12-18T06:39:51;100051.69;;;-11.57;100.00
50933;BME280;36921;49.006;9.292;2022-12-18T06:42:23;100050.78;;;-11.56;100.00
50933;BME280;36921;49.006;9.292;2022-12-18T06:44:49;100039.75;;;-11.69;100.00
50933;BME280;36921;49.006;9.292;2022-12-18T06:47:15;100053.53;;;-11.60;100.00
50933;BME280;36921;49.006;9.292;2022-12-18T06:49:40;100051.00;;;-11.65;100.00
50933;BME280;36921;49.006;9.292;2022-12-18T06:52:05;100053.78;;;-11.73;100.00
50933;BME280;36921;49.006;9.292;2022-12-18T06:54:31;100055.22;;;-11.59;100.00
50933;BME280;36921;49.006;9.292;2022-12-18T06:56:56;100047.31;;;-11.56;100.00
50933;BME280;36921;49.006;9.292;2022-12-18T06:59:21;100061.75;;;-11.40;100.00
50933;BME280;36921;49.006;9.292;2022-12-18T07:01:47;100075.44;;;-11.29;100.00
50933;BME280;36921;49.006;9.292;2022-12-18T07:04:12;100067.84;;;-11.39;100.00
50933;BME280;36921;49.006;9.292;2022-12-18T07:06:38;100089.13;;;-11.19;100.00
50933;BME280;36921;49.006;9.292;2022-12-18T07:09:03;100070.16;;;-11.27;100.00
50933;BME280;36921;49.006;9.292;2022-12-18T07:11:32;100082.09;;;-11.15;100.00
50933;BME280;36921;49.006;9.292;2022-12-18T07:13:59;100098.38;;;-11.06;100.00
50933;BME280;36921;49.006;9.292;2022-12-18T07:16:24;100091.25;;;-10.97;100.00
50933;BME280;36921;49.006;9.292;2022-12-18T07:18:49;100084.69;;;-10.79;100.00
50933;BME280;36921;49.006;9.292;2022-12-18T07:21:18;100108.88;;;-10.70;100.00
50933;BME280;36921;49.006;9.292;2022-12-18T07:23:44;100098.41;;;-10.70;100.00
50933;BME280;36921;49.006;9.292;2022-12-18T07:26:14;100094.03;;;-10.69;100.00
50933;BME280;36921;49.006;9.292;2022-12-18T07:28:41;100086.91;;;-10.63;100.00
50933;BME280;36921;49.006;9.292;2022-12-18T07:31:09;100084.94;;;-10.54;100.00
50933;BME280;36921;49.006;9.292;2022-12-18T07:33:35;100107.94;;;-10.33;100.00
50933;BME280;36921;49.006;9.292;2022-12-18T07:36:06;100092.81;;;-10.23;100.00
50933;BME280;36921;49.006;9.292;2022-12-18T07:38:32;100084.78;;;-10.17;100.00
50933;BME280;36921;49.006;9.292;2022-12-18T07:41:05;100092.63;;;-9.84;100.00
50933;BME280;36921;49.006;9.292;2022-12-18T07:43:31;100103.53;;;-9.70;100.00
50933;BME280;36921;49.006;9.292;2022-12-18T07:45:56;100115.94;;;-9.45;100.00
50933;BME280;36921;49.006;9.292;2022-12-18T07:48:21;100118.41;;;-9.41;100.00
50933;BME280;36921;49.006;9.292;2022-12-18T07:50:47;100084.31;;;-9.39;100.00
50933;BME280;36921;49.006;9.292;2022-12-18T07:53:12;100066.88;;;-9.40;100.00
50933;BME280;36921;49.006;9.292;2022-12-18T07:55:39;100079.72;;;-9.33;100.00
50933;BME280;36921;49.006;9.292;2022-12-18T07:58:06;100104.19;;;-9.04;100.00
50933;BME280;36921;49.006;9.292;2022-12-18T08:00:32;100083.13;;;-9.01;100.00
50933;BME280;36921;49.006;9.292;2022-12-18T08:02:57;100108.56;;;-8.76;100.00
50933;BME280;36921;49.006;9.292;2022-12-18T08:05:23;100084.59;;;-8.66;100.00
50933;BME280;36921;49.006;9.292;2022-12-18T08:07:48;100096.19;;;-8.46;100.00
50933;BME280;36921;49.006;9.292;2022-12-18T08:10:13;100087.13;;;-8.38;100.00
50933;BME280;36921;49.006;9.292;2022-12-18T08:12:39;100102.13;;;-8.16;100.00
50933;BME280;36921;49.006;9.292;2022-12-18T08:15:05;100105.75;;;-7.95;100.00
50933;BME280;36921;49.006;9.292;2022-12-18T08:17:30;100086.56;;;-7.97;100.00
50933;BME280;36921;49.006;9.292;2022-12-18T08:19:56;100074.91;;;-7.88;100.00
50933;BME280;36921;49.006;9.292;2022-12-18T08:22:21;100059.97;;;-7.88;100.00
50933;BME280;36921;49.006;9.292;2022-12-18T08:24:46;100105.22;;;-7.56;100.00
50933;BME280;36921;49.006;9.292;2022-12-18T08:27:12;100056.09;;;-7.78;100.00
50933;BME280;36921;49.006;9.292;2022-12-18T08:29:37;100109.50;;;-7.30;100.00
50933;BME280;36921;49.006;9.292;2022-12-18T08:32:03;100075.25;;;-7.29;100.00
50933;BME280;36921;49.006;9.292;2022-12-18T08:34:28;100091.78;;;-7.03;100.00
50933;BME280;36921;49.006;9.292;2022-12-18T08:36:58;100093.63;;;-6.83;100.00
50933;BME280;36921;49.006;9.292;2022-12-18T08:39:40;100062.38;;;-6.91;100.00
50933;BME280;36921;49.006;9.292;2022-12-18T08:42:06;100082.47;;;-6.68;100.00
50933;BME280;36921;49.006;9.292;2022-12-18T08:44:49;100102.06;;;-6.32;100.00
50933;BME280;36921;49.006;9.292;2022-12-18T08:47:15;100092.31;;;-6.30;100.00
50933;BME280;36921;49.006;9.292;2022-12-18T08:49:40;100097.00;;;-6.17;100.00
50933;BME280;36921;49.006;9.292;2022-12-18T08:52:06;100095.22;;;-6.16;100.00
50933;BME280;36921;49.006;9.292;2022-12-18T08:54:31;100091.53;;;-5.93;100.00
50933;BME280;36921;49.006;9.292;2022-12-18T08:56:57;100088.47;;;-5.63;100.00
50933;BME280;36921;49.006;9.292;2022-12-18T08:59:22;100101.19;;;-5.53;100.00
50933;BME280;36921;49.006;9.292;2022-12-18T09:01:48;100094.69;;;-5.45;100.00
50933;BME280;36921;49.006;9.292;2022-12-18T09:04:14;100089.41;;;-5.08;100.00
50933;BME280;36921;49.006;9.292;2022-12-18T09:06:40;100083.69;;;-4.98;100.00
50933;BME280;36921;49.006;9.292;2022-12-18T09:09:06;100069.41;;;-4.41;100.00
50933;BME280;36921;49.006;9.292;2022-12-18T09:11:32;100060.16;;;-3.48;100.00
50933;BME280;36921;49.006;9.292;2022-12-18T09:14:00;100061.03;;;-1.65;100.00
50933;BME280;36921;49.006;9.292;2022-12-18T09:16:27;100049.34;;;0.26;100.00
50933;BME280;36921;49.006;9.292;2022-12-18T09:18:55;100051.16;;;0.26;100.00
50933;BME280;36921;49.006;9.292;2022-12-18T09:21:25;100058.69;;;-0.19;100.00
50933;BME280;36921;49.006;9.292;2022-12-18T09:23:52;100063.84;;;-1.53;100.00
50933;BME280;36921;49.006;9.292;2022-12-18T09:26:18;100054.09;;;-1.67;100.00
50933;BME280;36921;49.006;9.292;2022-12-18T09:28:44;100050.94;;;-0.23;100.00
50933;BME280;36921;49.006;9.292;2022-12-18T09:31:11;100051.91;;;1.62;100.00
50933;BME280;36921;49.006;9.292;2022-12-18T09:33:37;100049.31;;;2.54;88.83
50933;BME280;36921;49.006;9.292;2022-12-18T09:36:06;100044.44;;;2.81;77.10
50933;BME280;36921;49.006;9.292;2022-12-18T09:38:32;100032.56;;;4.03;70.60
50933;BME280;36921;49.006;9.292;2022-12-18T09:41:15;100016.44;;;5.45;63.88
50933;BME280;36921;49.006;9.292;2022-12-18T09:43:49;100020.47;;;5.01;64.20
50933;BME280;36921;49.006;9.292;2022-12-18T09:46:39;100026.53;;;5.13;63.09
50933;BME280;36921;49.006;9.292;2022-12-18T09:49:11;100035.78;;;5.98;59.55
50933;BME280;36921;49.006;9.292;2022-12-18T09:51:42;100035.59;;;5.31;60.77
50933;BME280;36921;49.006;9.292;2022-12-18T09:54:26;100026.16;;;5.27;59.28
50933;BME280;36921;49.006;9.292;2022-12-18T09:56:55;100013.59;;;7.43;56.13
50933;BME280;36921;49.006;9.292;2022-12-18T09:59:35;100017.31;;;6.69;53.37
50933;BME280;36921;49.006;9.292;2022-12-18T10:02:14;100020.34;;;7.12;53.85
50933;BME280;36921;49.006;9.292;2022-12-18T10:04:39;100029.41;;;5.99;53.84
50933;BME280;36921;49.006;9.292;2022-12-18T10:07:23;100020.75;;;6.62;54.25
50933;BME280;36921;49.006;9.292;2022-12-18T10:10:07;100030.91;;;6.30;54.27
50933;BME280;36921;49.006;9.292;2022-12-18T10:12:48;100025.72;;;6.56;55.09
50933;BME280;36921;49.006;9.292;2022-12-18T10:15:26;100016.09;;;6.17;54.40
50933;BME280;36921;49.006;9.292;2022-12-18T10:18:02;100026.88;;;5.68;55.46
50933;BME280;36921;49.006;9.292;2022-12-18T10:20:36;100023.50;;;4.15;60.75
50933;BME280;36921;49.006;9.292;2022-12-18T10:23:15;100032.31;;;4.98;59.42
50933;BME280;36921;49.006;9.292;2022-12-18T10:26:00;100039.16;;;5.41;56.76
50933;BME280;36921;49.006;9.292;2022-12-18T10:28:29;100045.94;;;5.55;56.62
50933;BME280;36921;49.006;9.292;2022-12-18T10:30:55;100039.88;;;6.86;54.88
50933;BME280;36921;49.006;9.292;2022-12-18T10:33:28;100040.50;;;6.43;54.80
50933;BME280;36921;49.006;9.292;2022-12-18T10:35:55;100037.19;;;5.63;56.56
50933;BME280;36921;49.006;9.292;2022-12-18T10:38:29;100030.94;;;5.33;56.96
50933;BME280;36921;49.006;9.292;2022-12-18T10:43:35;100031.88;;;6.76;54.22
50933;BME280;36921;49.006;9.292;2022-12-18T10:48:26;100046.06;;;6.69;54.09
50933;BME280;36921;49.006;9.292;2022-12-18T10:50:53;100043.41;;;6.12;55.06
50933;BME280;36921;49.006;9.292;2022-12-18T10:53:24;100047.22;;;5.70;56.18
50933;BME280;36921;49.006;9.292;2022-12-18T10:55:52;100042.69;;;5.52;56.91
50933;BME280;36921;49.006;9.292;2022-12-18T10:58:24;100038.19;;;6.10;56.12
50933;BME280;36921;49.006;9.292;2022-12-18T11:01:06;100024.69;;;6.30;55.72
50933;BME280;36921;49.006;9.292;2022-12-18T11:04:01;100038.09;;;5.03;57.05
50933;BME280;36921;49.006;9.292;2022-12-18T11:06:25;100026.25;;;6.23;56.79
50933;BME280;36921;49.006;9.292;2022-12-18T11:09:09;100024.47;;;5.65;57.40
50933;BME280;36921;49.006;9.292;2022-12-18T11:11:49;100033.22;;;5.67;57.54
50933;BME280;36921;49.006;9.292;2022-12-18T11:14:25;100024.88;;;5.89;57.69
50933;BME280;36921;49.006;9.292;2022-12-18T11:16:52;100016.41;;;6.51;56.00
50933;BME280;36921;49.006;9.292;2022-12-18T11:19:34;100015.09;;;6.18;56.57
50933;BME280;36921;49.006;9.292;2022-12-18T11:22:01;100008.34;;;5.55;57.10
50933;BME280;36921;49.006;9.292;2022-12-18T11:24:32;100011.38;;;4.92;60.49
50933;BME280;36921;49.006;9.292;2022-12-18T11:27:03;100008.38;;;5.45;59.58
50933;BME280;36921;49.006;9.292;2022-12-18T11:29:36;99999.41;;;6.88;57.02
50933;BME280;36921;49.006;9.292;2022-12-18T11:35:04;99977.56;;;7.36;54.51
50933;BME280;36921;49.006;9.292;2022-12-18T11:37:35;99972.34;;;6.89;54.89
50933;BME280;36921;49.006;9.292;2022-12-18T11:40:23;99986.75;;;6.33;55.00
50933;BME280;36921;49.006;9.292;2022-12-18T11:43:25;99999.88;;;5.99;57.56
50933;BME280;36921;49.006;9.292;2022-12-18T11:46:00;99984.34;;;6.40;57.24
50933;BME280;36921;49.006;9.292;2022-12-18T11:48:38;99987.25;;;6.09;57.77
50933;BME280;36921;49.006;9.292;2022-12-18T11:51:13;99980.31;;;6.16;57.52
50933;BME280;36921;49.006;9.292;2022-12-18T11:53:41;99975.84;;;5.68;57.01
50933;BME280;36921;49.006;9.292;2022-12-18T11:58:45;99986.28;;;5.90;58.93
50933;BME280;36921;49.006;9.292;2022-12-18T12:10:12;99949.59;;;3.61;64.88
50933;BME280;36921;49.006;9.292;2022-12-18T12:12:58;99968.47;;;3.60;66.72
50933;BME280;36921;49.006;9.292;2022-12-18T12:15:44;99948.44;;;4.36;64.24
50933;BME280;36921;49.006;9.292;2022-12-18T12:37:44;99959.81;;;3.98;68.54
50933;BME280;36921;49.006;9.292;2022-12-18T12:40:17;99956.19;;;3.78;68.24
50933;BME280;36921;49.006;9.292;2022-12-18T12:42:47;99955.97;;;4.22;68.46
50933;BME280;36921;49.006;9.292;2022-12-18T12:45:47;99955.25;;;4.50;67.22
50933;BME280;36921;49.006;9.292;2022-12-18T12:48:20;99947.25;;;4.60;67.82
50933;BME280;36921;49.006;9.292;2022-12-18T12:50:49;99956.28;;;4.69;66.45
50933;BME280;36921;49.006;9.292;2022-12-18T12:53:24;99955.09;;;4.42;65.61
50933;BME280;36921;49.006;9.292;2022-12-18T12:55:52;99962.94;;;4.34;66.98
50933;BME280;36921;49.006;9.292;2022-12-18T13:00:56;99961.41;;;3.59;69.88
50933;BME280;36921;49.006;9.292;2022-12-18T13:05:59;99963.69;;;3.63;72.78
50933;BME280;36921;49.006;9.292;2022-12-18T13:08:31;99960.88;;;4.07;69.25
50933;BME280;36921;49.006;9.292;2022-12-18T13:10:58;99951.09;;;3.96;69.46
50933;BME280;36921;49.006;9.292;2022-12-18T13:13:51;99960.56;;;3.79;70.42
50933;BME280;36921;49.006;9.292;2022-12-18T13:16:21;99959.44;;;3.61;71.13
50933;BME280;36921;49.006;9.292;2022-12-18T13:18:55;99966.13;;;3.13;73.68
50933;BME280;36921;49.006;9.292;2022-12-18T13:21:25;99967.31;;;3.20;77.30
50933;BME280;36921;49.006;9.292;2022-12-18T13:23:52;99970.31;;;3.27;76.81
50933;BME280;36921;49.006;9.292;2022-12-18T13:31:14;99956.28;;;1.80;91.50
50933;BME280;36921;49.006;9.292;2022-12-18T13:41:41;99960.75;;;1.22;100.00
50933;BME280;36921;49.006;9.292;2022-12-18T13:44:32;99947.16;;;1.14;100.00
50933;BME280;36921;49.006;9.292;2022-12-18T13:46:58;99939.06;;;0.91;100.00
50933;BME280;36921;49.006;9.292;2022-12-18T13:49:38;99935.59;;;0.78;100.00
50933;BME280;36921;49.006;9.292;2022-12-18T13:52:17;99941.63;;;0.69;100.00
50933;BME280;36921;49.006;9.292;2022-12-18T13:54:47;99934.66;;;0.79;100.00
50933;BME280;36921;49.006;9.292;2022-12-18T13:57:36;99944.59;;;0.88;100.00
50933;BME280;36921;49.006;9.292;2022-12-18T14:02:46;99930.91;;;0.81;100.00
50933;BME280;36921;49.006;9.292;2022-12-18T14:05:40;99942.28;;;0.83;100.00
50933;BME280;36921;49.006;9.292;2022-12-18T14:08:08;99944.28;;;0.69;100.00
50933;BME280;36921;49.006;9.292;2022-12-18T14:10:40;99948.78;;;0.55;100.00
50933;BME280;36921;49.006;9.292;2022-12-18T14:13:07;99956.59;;;0.46;100.00
50933;BME280;36921;49.006;9.292;2022-12-18T14:15:43;99955.25;;;0.27;100.00
50933;BME280;36921;49.006;9.292;2022-12-18T14:18:22;99961.03;;;0.08;100.00
50933;BME280;36921;49.006;9.292;2022-12-18T14:20:54;99968.25;;;0.06;100.00